createdAt,value
2022-09-22T00:03:43.636Z,77.54
2022-09-22T00:08:51.488Z,78.00
2022-09-22T00:14:01.891Z,78.06
2022-09-22T00:19:26.909Z,77.93
2022-09-22T00:24:29.730Z,78.11
2022-09-22T00:29:31.985Z,78.26
2022-09-22T00:34:33.765Z,78.25
2022-09-22T00:39:37.005Z,78.46
2022-09-22T00:44:40.491Z,78.55
2022-09-22T00:49:53.887Z,78.31
2022-09-22T00:55:00.886Z,78.61
2022-09-22T01:00:06.492Z,78.62
2022-09-22T01:05:09.141Z,78.58
2022-09-22T01:10:11.390Z,78.59
2022-09-22T01:15:13.071Z,78.80
2022-09-22T01:20:45.335Z,78.83
2022-09-22T01:26:14.390Z,79.15
2022-09-22T01:31:38.945Z,78.98
2022-09-22T01:37:11.631Z,79.15
2022-09-22T01:42:17.161Z,79.18
2022-09-22T01:47:23.065Z,79.49
2022-09-22T01:52:31.125Z,79.28
2022-09-22T01:57:54.537Z,79.65
2022-09-22T02:03:10.934Z,80.00
2022-09-22T02:08:21.805Z,80.02
2022-09-22T02:13:23.756Z,80.88
2022-09-22T02:18:30.589Z,81.36
2022-09-22T02:23:32.596Z,81.35
2022-09-22T02:28:38.659Z,81.07
2022-09-22T02:33:41.501Z,82.23
2022-09-22T02:38:56.296Z,83.00
2022-09-22T02:44:13.373Z,82.63
2022-09-22T02:49:18.304Z,82.16
2022-09-22T02:54:20.424Z,81.97
2022-09-22T02:59:22.253Z,82.13
2022-09-22T03:04:24.077Z,81.94
2022-09-22T03:09:25.896Z,82.37
2022-09-22T03:14:27.721Z,82.51
2022-09-22T03:19:29.318Z,83.09
2022-09-22T03:24:30.941Z,82.91
2022-09-22T03:29:32.905Z,82.73
2022-09-22T03:34:35.005Z,83.27
2022-09-22T03:39:36.592Z,83.38
2022-09-22T03:44:38.404Z,82.95
2022-09-22T03:49:40.403Z,82.85
2022-09-22T03:54:42.099Z,82.83
2022-09-22T03:59:43.685Z,83.05
2022-09-22T04:04:45.298Z,83.03
2022-09-22T04:09:46.921Z,83.15
2022-09-22T04:14:48.770Z,83.80
2022-09-22T04:19:50.475Z,84.09
2022-09-22T04:24:52.393Z,83.57
2022-09-22T04:29:54.187Z,83.69
2022-09-22T04:34:55.832Z,83.13
2022-09-22T04:39:59.181Z,83.66
2022-09-22T04:45:03.019Z,83.30
2022-09-22T04:50:05.391Z,83.62
2022-09-22T04:55:08.184Z,84.07
2022-09-22T05:00:10.502Z,84.29
2022-09-22T05:05:12.985Z,84.53
2022-09-22T05:10:17.897Z,84.44
2022-09-22T05:15:20.744Z,84.69
2022-09-22T05:20:22.597Z,84.58
2022-09-22T05:25:25.285Z,84.48
2022-09-22T05:30:27.241Z,84.32
2022-09-22T05:35:32.985Z,84.52
2022-09-22T05:40:37.585Z,84.56
2022-09-22T05:45:39.867Z,84.87
2022-09-22T05:50:43.588Z,87.63
2022-09-22T05:55:45.396Z,88.78
2022-09-22T06:00:47.298Z,89.25
2022-09-22T06:05:49.609Z,88.21
2022-09-22T06:10:51.520Z,88.24
2022-09-22T06:15:53.147Z,87.55
2022-09-22T06:20:56.286Z,87.19
2022-09-22T06:25:59.235Z,87.49
2022-09-22T06:31:01.720Z,87.13
2022-09-22T06:36:07.186Z,86.83
2022-09-22T06:41:09.481Z,87.29
2022-09-22T06:46:13.549Z,86.71
2022-09-22T06:51:15.177Z,86.47
2022-09-22T06:56:19.730Z,85.97
2022-09-22T07:01:21.463Z,85.24
2022-09-22T07:06:23.112Z,84.86
2022-09-22T07:11:25.050Z,83.97
2022-09-22T07:16:26.936Z,83.77
2022-09-22T07:21:34.957Z,82.83
2022-09-22T07:26:38.986Z,81.42
2022-09-22T07:31:41.912Z,81.21
2022-09-22T07:36:45.092Z,81.04
2022-09-22T07:41:48.040Z,81.07
2022-09-22T07:46:49.774Z,80.96
2022-09-22T07:51:55.240Z,80.64
2022-09-22T07:56:58.800Z,80.63
2022-09-22T08:02:01.198Z,80.22
2022-09-22T08:07:03.155Z,80.64
2022-09-22T08:12:05.458Z,80.53
2022-09-22T08:17:12.173Z,80.33
2022-09-22T08:22:13.744Z,79.23
2022-09-22T08:27:15.336Z,79.42
2022-09-22T08:32:18.583Z,79.25
2022-09-22T08:37:20.610Z,79.73
2022-09-22T08:42:23.471Z,79.91
2022-09-22T08:48:10.588Z,79.34
2022-09-22T08:53:16.517Z,79.70
2022-09-22T08:58:33.508Z,78.92
2022-09-22T09:04:01.781Z,79.21
2022-09-22T09:09:27.628Z,77.90
2022-09-22T09:14:55.972Z,78.35
2022-09-22T09:20:21.704Z,77.83
2022-09-22T09:25:35.877Z,77.25
2022-09-22T09:30:50.148Z,77.88
2022-09-22T09:35:53.626Z,76.90
2022-09-22T09:41:36.440Z,77.42
2022-09-22T09:46:49.383Z,76.83
2022-09-22T09:51:54.881Z,76.97
2022-09-22T09:57:09.537Z,76.48
2022-09-22T10:02:15.136Z,76.85
2022-09-22T10:07:21.701Z,76.58
2022-09-22T10:12:29.755Z,75.75
2022-09-22T10:17:40.215Z,75.09
2022-09-22T10:22:42.648Z,74.75
2022-09-22T10:27:58.440Z,72.03
2022-09-22T10:33:15.053Z,72.78
2022-09-22T10:38:20.640Z,72.03
2022-09-22T10:43:37.317Z,71.18
2022-09-22T10:48:49.586Z,70.68
2022-09-22T10:54:29.913Z,70.55
2022-09-22T10:59:55.609Z,70.84
2022-09-22T11:05:02.763Z,67.87
2022-09-22T11:10:52.691Z,69.80
2022-09-22T11:16:11.615Z,68.49
2022-09-22T11:21:27.427Z,69.41
2022-09-22T11:26:44.207Z,67.82
2022-09-22T11:32:24.778Z,67.13
2022-09-22T11:37:43.162Z,62.40
2022-09-22T11:43:09.308Z,66.63
2022-09-22T11:48:29.769Z,65.34
2022-09-22T11:54:04.917Z,62.83
2022-09-22T11:59:35.950Z,61.30
2022-09-22T12:04:46.583Z,60.88
2022-09-22T12:10:07.082Z,61.45
2022-09-22T12:15:20.808Z,63.03
2022-09-22T12:20:30.227Z,63.78
2022-09-22T12:25:48.646Z,62.18
2022-09-22T12:30:53.873Z,62.68
2022-09-22T12:35:56.826Z,61.58
2022-09-22T12:41:02.873Z,61.62
2022-09-22T12:46:18.845Z,60.67
2022-09-22T12:51:26.386Z,61.14
2022-09-22T12:57:01.961Z,58.80
2022-09-22T13:02:18.702Z,56.85
2022-09-22T13:07:41.429Z,64.08
2022-09-22T13:13:06.175Z,66.43
2022-09-22T13:18:29.769Z,67.93
2022-09-22T13:23:31.608Z,68.75
2022-09-22T13:28:33.506Z,68.16
2022-09-22T13:33:36.228Z,65.65
2022-09-22T13:38:43.407Z,63.75
2022-09-22T13:43:48.741Z,61.73
2022-09-22T13:48:55.417Z,61.44
2022-09-22T13:53:57.884Z,61.63
2022-09-22T13:59:02.889Z,61.56
2022-09-22T14:04:24.616Z,61.40
2022-09-22T14:09:26.676Z,59.66
2022-09-22T14:14:28.984Z,57.81
2022-09-22T14:19:37.298Z,57.53
2022-09-22T14:24:47.272Z,57.75
2022-09-22T14:29:52.488Z,59.11
2022-09-22T14:35:00.968Z,59.37
2022-09-22T14:40:07.143Z,58.79
2022-09-22T14:45:08.906Z,58.81
2022-09-22T14:50:20.031Z,59.53
2022-09-22T14:55:39.029Z,60.19
2022-09-22T15:01:10.431Z,60.66
2022-09-22T15:06:14.460Z,61.62
2022-09-22T15:11:16.570Z,62.24
2022-09-22T15:16:37.233Z,62.63
2022-09-22T15:21:46.894Z,62.25
2022-09-22T15:26:48.770Z,62.29
2022-09-22T15:31:50.392Z,62.43
2022-09-22T15:36:53.202Z,62.58
2022-09-22T15:41:55.381Z,63.00
2022-09-22T15:47:01.243Z,63.24
2022-09-22T15:52:04.878Z,63.40
2022-09-22T15:57:06.560Z,63.07
2022-09-22T16:02:11.804Z,63.14
2022-09-22T16:07:14.223Z,63.46
2022-09-22T16:12:17.965Z,63.48
2022-09-22T16:17:24.616Z,63.87
2022-09-22T16:22:26.180Z,64.05
2022-09-22T16:27:29.423Z,64.67
2022-09-22T16:32:32.489Z,64.85
2022-09-22T16:37:34.405Z,64.86
2022-09-22T16:42:39.069Z,65.11
2022-09-22T16:47:40.714Z,65.25
2022-09-22T16:52:42.503Z,65.76
2022-09-22T16:57:44.156Z,66.32
2022-09-22T17:02:46.829Z,66.26
2022-09-22T17:07:49.996Z,67.36
2022-09-22T17:12:52.335Z,67.59
2022-09-22T17:17:53.862Z,68.17
2022-09-22T17:22:55.925Z,68.48
2022-09-22T17:27:57.819Z,69.00
2022-09-22T17:33:01.362Z,69.10
2022-09-22T17:38:03.157Z,69.34
2022-09-22T17:43:05.573Z,69.51
2022-09-22T17:48:26.580Z,69.69
2022-09-22T17:53:46.418Z,69.84
2022-09-22T17:58:48.210Z,70.50
2022-09-22T18:03:49.911Z,71.02
2022-09-22T18:08:51.880Z,71.33
2022-09-22T18:13:56.209Z,71.60
2022-09-22T18:18:58.287Z,72.04
2022-09-22T18:24:00.715Z,72.45
2022-09-22T18:29:04.429Z,72.71
2022-09-22T18:34:09.804Z,72.92
2022-09-22T18:39:13.096Z,73.51
2022-09-22T18:44:18.777Z,73.36
2022-09-22T18:49:21.582Z,74.11
2022-09-22T18:54:24.742Z,73.83
2022-09-22T18:59:28.027Z,74.01
2022-09-22T19:04:30.189Z,73.76
2022-09-22T19:09:33.093Z,74.70
2022-09-22T19:14:39.267Z,74.98
2022-09-22T19:19:42.231Z,75.36
2022-09-22T19:24:48.203Z,75.66
2022-09-22T19:29:50.673Z,76.30
2022-09-22T19:34:54.779Z,76.50
2022-09-22T19:39:56.803Z,76.90
2022-09-22T19:44:59.196Z,76.96
2022-09-22T19:50:00.990Z,76.95
2022-09-22T19:55:02.630Z,77.67
2022-09-22T20:00:08.807Z,77.45
2022-09-22T20:05:22.114Z,77.73
2022-09-22T20:10:24.305Z,78.29
2022-09-22T20:15:27.543Z,78.47
2022-09-22T20:20:31.742Z,78.65
2022-09-22T20:25:33.599Z,78.26
2022-09-22T20:30:35.271Z,78.80
2022-09-22T20:35:36.869Z,78.66
2022-09-22T20:40:39.438Z,79.08
2022-09-22T20:45:42.905Z,78.96
2022-09-22T20:51:02.722Z,79.43
2022-09-22T20:56:12.002Z,79.54
2022-09-22T21:01:15.211Z,79.93
2022-09-22T21:06:18.072Z,79.67
2022-09-22T21:11:20.304Z,80.22
2022-09-22T21:16:22.923Z,79.91
2022-09-22T21:21:24.732Z,80.13
2022-09-22T21:26:26.495Z,80.49
2022-09-22T21:31:28.412Z,80.71
2022-09-22T21:36:30.256Z,80.80
2022-09-22T21:41:32.301Z,80.74
2022-09-22T21:46:41.096Z,80.41
2022-09-22T21:51:44.404Z,80.61
2022-09-22T21:56:46.549Z,81.21
2022-09-22T22:01:48.532Z,81.49
2022-09-22T22:06:50.627Z,81.68
2022-09-22T22:11:58.022Z,81.58
2022-09-22T22:17:02.103Z,81.79
2022-09-22T22:22:04.233Z,81.84
2022-09-22T22:27:09.891Z,82.04
2022-09-22T22:32:11.780Z,82.00
2022-09-22T22:37:13.558Z,82.55
2022-09-22T22:42:15.110Z,82.52
2022-09-22T22:47:17.345Z,82.62
2022-09-22T22:52:19.300Z,82.47
2022-09-22T22:57:21.401Z,82.65
2022-09-22T23:02:23.596Z,82.70
2022-09-22T23:07:25.278Z,82.99
2022-09-22T23:12:27.102Z,83.51
2022-09-22T23:17:28.676Z,83.53
2022-09-22T23:22:30.633Z,84.05
2022-09-22T23:27:33.024Z,83.74
2022-09-22T23:32:34.606Z,84.14
2022-09-22T23:37:36.633Z,84.09
2022-09-22T23:42:38.457Z,84.11
2022-09-22T23:47:40.229Z,83.98
2022-09-22T23:52:41.988Z,83.87
2022-09-22T23:57:43.572Z,83.87
